createdAt,value
2019-03-03T00:01:01.920Z,13.10
2019-03-03T00:03:29.500Z,13.60
2019-03-03T00:05:56.941Z,14.27
2019-03-03T00:08:24.772Z,14.03
2019-03-03T00:10:52.349Z,15.07
2019-03-03T00:13:19.829Z,13.83
2019-03-03T00:15:47.293Z,13.20
2019-03-03T00:18:14.789Z,14.30
2019-03-03T00:20:42.224Z,13.43
2019-03-03T00:23:09.669Z,14.17
2019-03-03T00:25:37.344Z,14.07
2019-03-03T00:28:04.950Z,14.10
2019-03-03T00:30:32.540Z,13.00
2019-03-03T00:32:59.991Z,13.43
2019-03-03T00:35:27.498Z,13.60
2019-03-03T00:38:06.252Z,13.97
2019-03-03T00:41:02.297Z,14.03
2019-03-03T00:43:37.992Z,13.90
2019-03-03T00:46:23.594Z,13.90
2019-03-03T00:49:04.479Z,13.43
2019-03-03T00:51:54.355Z,13.43
2019-03-03T00:54:59.849Z,13.30
2019-03-03T00:57:49.567Z,13.70
2019-03-03T01:00:40.094Z,13.33
2019-03-03T01:03:13.415Z,13.27
2019-03-03T01:06:12.560Z,12.07
2019-03-03T01:09:08.579Z,13.20
2019-03-03T01:11:51.277Z,12.27
2019-03-03T01:14:29.597Z,12.17
2019-03-03T01:17:19.287Z,11.57
2019-03-03T01:20:05.856Z,11.87
2019-03-03T01:22:55.674Z,12.47
2019-03-03T01:25:23.201Z,11.87
2019-03-03T01:27:50.618Z,13.93
2019-03-03T01:30:18.192Z,13.13
2019-03-03T01:32:45.658Z,12.80
2019-03-03T01:35:13.118Z,12.53
2019-03-03T01:37:40.736Z,13.73
2019-03-03T01:40:08.537Z,12.60
2019-03-03T01:42:36.068Z,13.67
2019-03-03T01:45:04.336Z,13.27
2019-03-03T01:47:31.863Z,12.33
2019-03-03T01:49:59.318Z,12.60
2019-03-03T01:52:26.912Z,12.90
2019-03-03T01:54:54.361Z,13.07
2019-03-03T01:57:21.807Z,13.60
2019-03-03T01:59:49.295Z,12.97
2019-03-03T02:02:16.848Z,13.13
2019-03-03T02:04:44.367Z,12.97
2019-03-03T02:07:11.937Z,12.27
2019-03-03T02:09:39.419Z,12.43
2019-03-03T02:12:06.912Z,12.60
2019-03-03T02:14:34.406Z,13.17
2019-03-03T02:17:02.482Z,13.03
2019-03-03T02:19:30.077Z,12.60
2019-03-03T02:21:57.604Z,12.73
2019-03-03T02:24:25.087Z,12.50
2019-03-03T02:26:52.942Z,12.90
2019-03-03T02:29:20.437Z,12.40
2019-03-03T02:31:47.949Z,12.60
2019-03-03T02:34:15.419Z,12.53
2019-03-03T02:36:43.049Z,14.10
2019-03-03T02:39:15.659Z,14.50
2019-03-03T02:41:43.099Z,13.47
2019-03-03T02:44:10.599Z,13.70
2019-03-03T02:46:38.055Z,13.23
2019-03-03T02:49:05.496Z,13.07
2019-03-03T02:51:32.968Z,12.73
2019-03-03T02:54:00.465Z,14.27
2019-03-03T02:56:27.942Z,13.33
2019-03-03T02:58:55.385Z,13.27
2019-03-03T03:01:27.075Z,12.70
2019-03-03T03:03:54.549Z,12.83
2019-03-03T03:06:41.513Z,13.93
2019-03-03T03:09:12.209Z,13.67
2019-03-03T03:11:55.755Z,13.43
2019-03-03T03:14:42.012Z,12.30
2019-03-03T03:17:38.216Z,12.90
2019-03-03T03:20:24.799Z,12.90
2019-03-03T03:23:06.461Z,12.87
2019-03-03T03:25:49.920Z,12.37
2019-03-03T03:28:26.987Z,12.33
2019-03-03T03:31:22.989Z,12.93
2019-03-03T03:33:58.458Z,13.10
2019-03-03T03:36:39.522Z,13.07
2019-03-03T03:39:38.579Z,13.97
2019-03-03T03:42:18.037Z,13.20
2019-03-03T03:45:13.925Z,13.07
2019-03-03T03:47:59.508Z,13.40
2019-03-03T03:50:41.346Z,12.70
2019-03-03T03:53:27.200Z,12.80
2019-03-03T03:56:16.809Z,12.63
2019-03-03T03:59:00.538Z,12.77
2019-03-03T04:02:05.390Z,13.07
2019-03-03T04:04:39.369Z,13.33
2019-03-03T04:07:14.560Z,12.97
2019-03-03T04:09:46.499Z,12.93
2019-03-03T04:12:36.286Z,13.63
2019-03-03T04:15:10.080Z,13.37
2019-03-03T04:17:51.760Z,13.43
2019-03-03T04:20:54.007Z,13.03
2019-03-03T04:23:48.018Z,13.17
2019-03-03T04:26:33.762Z,13.67
2019-03-03T04:29:19.602Z,13.43
2019-03-03T04:32:01.147Z,12.80
2019-03-03T04:34:45.318Z,12.73
2019-03-03T04:37:21.987Z,12.77
2019-03-03T04:40:12.017Z,12.50
2019-03-03T04:42:47.097Z,12.90
2019-03-03T04:45:22.388Z,11.63
2019-03-03T04:48:08.243Z,12.50
2019-03-03T04:50:55.284Z,11.17
2019-03-03T04:53:45.231Z,12.07
2019-03-03T04:56:30.956Z,12.83
2019-03-03T04:59:23.749Z,12.30
2019-03-03T05:02:07.463Z,12.40
2019-03-03T05:04:56.481Z,12.30
2019-03-03T05:07:52.765Z,12.33
2019-03-03T05:10:30.909Z,12.73
2019-03-03T05:13:26.888Z,12.07
2019-03-03T05:16:12.723Z,11.93
2019-03-03T05:18:48.701Z,11.47
2019-03-03T05:21:16.157Z,12.47
2019-03-03T05:23:43.639Z,12.17
2019-03-03T05:26:11.116Z,13.03
2019-03-03T05:28:38.596Z,12.33
2019-03-03T05:31:06.071Z,12.07
2019-03-03T05:33:33.532Z,12.33
2019-03-03T05:36:00.980Z,12.43
2019-03-03T05:38:28.432Z,14.37
2019-03-03T05:40:55.912Z,16.13
2019-03-03T05:43:23.422Z,16.73
2019-03-03T05:45:50.856Z,15.23
2019-03-03T05:48:18.316Z,13.30
2019-03-03T05:50:46.016Z,12.00
2019-03-03T05:53:13.447Z,12.10
2019-03-03T05:55:40.912Z,11.70
2019-03-03T05:58:08.356Z,10.60
2019-03-03T06:00:35.814Z,12.30
2019-03-03T06:03:03.369Z,12.10
2019-03-03T06:05:30.821Z,12.27
2019-03-03T06:07:58.257Z,11.60
2019-03-03T06:10:25.736Z,11.80
2019-03-03T06:12:53.240Z,12.00
2019-03-03T06:15:20.712Z,12.60
2019-03-03T06:17:48.156Z,10.97
2019-03-03T06:20:15.622Z,10.97
2019-03-03T06:22:43.051Z,10.53
2019-03-03T06:25:10.619Z,10.57
2019-03-03T06:27:38.137Z,11.00
2019-03-03T06:30:07.438Z,11.07
2019-03-03T06:32:34.888Z,10.23
2019-03-03T06:35:02.471Z,10.27
2019-03-03T06:37:29.890Z,9.97
2019-03-03T06:39:57.400Z,9.60
2019-03-03T06:42:24.897Z,9.53
2019-03-03T06:44:52.337Z,10.30
2019-03-03T06:47:19.796Z,10.80
2019-03-03T06:49:47.257Z,9.60
2019-03-03T06:52:14.711Z,10.33
2019-03-03T06:54:42.197Z,10.73
2019-03-03T06:57:09.718Z,10.03
2019-03-03T06:59:37.164Z,10.30
2019-03-03T07:02:04.613Z,9.47
2019-03-03T07:04:32.056Z,10.27
2019-03-03T07:06:59.512Z,9.80
2019-03-03T07:09:26.977Z,11.37
2019-03-03T07:11:54.437Z,10.33
2019-03-03T07:14:21.911Z,11.10
2019-03-03T07:16:49.379Z,10.47
2019-03-03T07:19:16.829Z,10.00
2019-03-03T07:21:44.323Z,9.73
2019-03-03T07:24:11.791Z,9.67
2019-03-03T07:26:39.276Z,10.23
2019-03-03T07:29:06.763Z,9.93
2019-03-03T07:31:34.255Z,9.97
2019-03-03T07:34:02.897Z,10.17
2019-03-03T07:36:30.320Z,9.17
2019-03-03T07:38:57.863Z,9.60
2019-03-03T07:41:25.338Z,10.17
2019-03-03T07:43:52.804Z,10.10
2019-03-03T07:46:20.266Z,9.90
2019-03-03T07:48:47.777Z,10.60
2019-03-03T07:51:15.277Z,10.00
2019-03-03T07:53:42.740Z,9.50
2019-03-03T07:56:10.203Z,9.37
2019-03-03T07:58:37.687Z,10.20
2019-03-03T08:01:05.121Z,10.50
2019-03-03T08:03:32.723Z,10.70
2019-03-03T08:06:00.317Z,8.90
2019-03-03T08:08:27.818Z,9.83
2019-03-03T08:10:55.253Z,9.80
2019-03-03T08:13:22.739Z,9.43
2019-03-03T08:15:50.221Z,10.60
2019-03-03T08:18:17.728Z,9.43
2019-03-03T08:20:45.358Z,9.93
2019-03-03T08:23:12.852Z,9.40
2019-03-03T08:25:40.337Z,9.90
2019-03-03T08:28:07.861Z,10.10
2019-03-03T08:30:35.439Z,9.87
2019-03-03T08:33:03.018Z,10.13
2019-03-03T08:35:30.525Z,11.23
2019-03-03T08:37:59.880Z,11.80
2019-03-03T08:40:27.359Z,10.00
2019-03-03T08:43:23.450Z,10.00
2019-03-03T08:46:19.746Z,8.90
2019-03-03T08:48:57.658Z,8.93
2019-03-03T08:51:45.683Z,7.80
2019-03-03T08:54:31.017Z,7.50
2019-03-03T08:57:15.812Z,6.47
2019-03-03T09:00:20.849Z,6.97
2019-03-03T09:03:17.202Z,4.47
2019-03-03T09:06:07.151Z,18.10
2019-03-03T09:08:52.266Z,6.27
2019-03-03T09:11:31.074Z,4.33
2019-03-03T09:14:17.487Z,2.80
2019-03-03T09:17:14.947Z,2.10
2019-03-03T09:20:04.890Z,2.07
2019-03-03T09:22:51.885Z,2.50
2019-03-03T09:25:48.061Z,2.60
2019-03-03T09:28:35.090Z,3.87
2019-03-03T09:31:20.694Z,3.37
2019-03-03T09:33:56.053Z,2.27
2019-03-03T09:36:37.298Z,2.30
2019-03-03T09:39:28.766Z,2.20
2019-03-03T09:42:05.396Z,2.40
2019-03-03T09:45:07.730Z,2.40
2019-03-03T09:47:44.777Z,2.20
2019-03-03T09:50:23.263Z,2.67
2019-03-03T09:53:08.787Z,2.50
2019-03-03T09:55:53.518Z,2.50
2019-03-03T09:58:40.596Z,2.43
2019-03-03T10:01:19.572Z,1.90
2019-03-03T10:04:12.632Z,2.33
2019-03-03T10:06:57.866Z,2.23
2019-03-03T10:09:47.932Z,2.37
2019-03-03T10:12:37.659Z,2.33
2019-03-03T10:15:25.959Z,2.37
2019-03-03T10:18:11.748Z,2.07
2019-03-03T10:21:11.329Z,2.60
2019-03-03T10:24:10.334Z,2.10
2019-03-03T10:26:48.437Z,2.03
2019-03-03T10:29:53.811Z,2.10
2019-03-03T10:32:39.369Z,2.03
2019-03-03T10:35:22.162Z,1.90
2019-03-03T10:38:08.209Z,1.90
2019-03-03T10:40:54.402Z,1.80
2019-03-03T10:43:47.645Z,1.70
2019-03-03T10:46:34.867Z,1.60
2019-03-03T10:49:09.533Z,1.50
2019-03-03T10:51:55.863Z,2.07
2019-03-03T10:54:46.027Z,2.30
2019-03-03T10:57:42.182Z,2.10
2019-03-03T11:00:32.257Z,2.00
2019-03-03T11:03:17.927Z,2.27
2019-03-03T11:06:01.939Z,2.00
2019-03-03T11:08:58.217Z,1.50
2019-03-03T11:11:44.411Z,1.80
2019-03-03T11:14:22.480Z,1.80
2019-03-03T11:17:12.778Z,1.80
2019-03-03T11:19:54.888Z,1.83
2019-03-03T11:22:48.388Z,1.90
2019-03-03T11:25:34.145Z,1.83
2019-03-03T11:28:29.323Z,1.63
2019-03-03T11:31:16.759Z,1.53
2019-03-03T11:33:55.974Z,1.40
2019-03-03T11:36:30.197Z,1.50
2019-03-03T11:39:26.072Z,1.50
2019-03-03T11:42:19.815Z,1.70
2019-03-03T11:44:55.509Z,1.60
2019-03-03T11:47:42.910Z,1.73
2019-03-03T11:50:28.893Z,2.00
2019-03-03T11:53:22.339Z,1.60
2019-03-03T11:56:15.865Z,1.60
2019-03-03T11:59:01.571Z,1.43
2019-03-03T12:02:01.132Z,1.57
2019-03-03T12:04:47.255Z,1.40
2019-03-03T12:07:40.162Z,1.47
2019-03-03T12:10:27.851Z,1.40
2019-03-03T12:13:21.319Z,1.37
2019-03-03T12:16:07.448Z,1.40
2019-03-03T12:18:53.614Z,1.50
2019-03-03T12:21:39.894Z,1.50
2019-03-03T12:24:14.645Z,1.40
2019-03-03T12:26:54.872Z,1.50
2019-03-03T12:29:36.149Z,1.53
2019-03-03T12:32:21.931Z,1.30
2019-03-03T12:35:16.506Z,0.93
2019-03-03T12:38:12.437Z,1.10
2019-03-03T12:41:11.611Z,0.90
2019-03-03T12:44:11.063Z,1.10
2019-03-03T12:47:01.255Z,1.10
2019-03-03T12:49:45.435Z,1.20
2019-03-03T12:52:20.979Z,1.00
2019-03-03T12:55:07.221Z,1.17
2019-03-03T12:57:48.357Z,1.60
2019-03-03T13:00:38.357Z,0.97
2019-03-03T13:03:34.755Z,1.00
2019-03-03T13:06:26.431Z,1.00
2019-03-03T13:09:19.684Z,1.20
2019-03-03T13:11:57.027Z,1.37
2019-03-03T13:14:33.078Z,1.23
2019-03-03T13:17:17.862Z,1.13
2019-03-03T13:20:03.759Z,1.27
2019-03-03T13:22:42.666Z,1.40
2019-03-03T13:25:22.375Z,1.80
2019-03-03T13:28:09.830Z,1.40
2019-03-03T13:30:55.821Z,1.60
2019-03-03T13:33:43.275Z,1.47
2019-03-03T13:36:25.597Z,1.27
2019-03-03T13:39:06.952Z,1.60
2019-03-03T13:41:42.044Z,1.30
2019-03-03T13:44:10.011Z,1.37
2019-03-03T13:46:38.454Z,1.27
2019-03-03T13:49:06.443Z,1.27
2019-03-03T13:51:34.574Z,1.20
2019-03-03T13:54:02.620Z,1.10
2019-03-03T13:56:31.071Z,0.97
2019-03-03T13:58:59.066Z,1.20
2019-03-03T14:01:27.127Z,1.20
2019-03-03T14:03:55.189Z,1.40
2019-03-03T14:06:23.258Z,1.50
2019-03-03T14:08:51.498Z,1.73
2019-03-03T14:11:27.222Z,1.20
2019-03-03T14:13:55.258Z,1.70
2019-03-03T14:16:23.181Z,1.80
2019-03-03T14:18:51.220Z,1.33
2019-03-03T14:21:19.314Z,1.83
2019-03-03T14:23:47.326Z,1.70
2019-03-03T14:26:15.571Z,2.00
2019-03-03T14:28:43.518Z,10.70
2019-03-03T14:31:11.568Z,7.23
2019-03-03T14:33:39.564Z,3.73
2019-03-03T14:36:07.596Z,5.53
2019-03-03T14:38:35.988Z,1.20
2019-03-03T14:41:04.007Z,0.90
2019-03-03T14:43:32.015Z,1.33
2019-03-03T14:46:00.007Z,1.30
2019-03-03T14:48:28.050Z,1.57
2019-03-03T14:50:56.013Z,1.30
2019-03-03T14:53:24.181Z,1.20
2019-03-03T14:55:52.202Z,1.40
2019-03-03T14:58:21.936Z,1.30
2019-03-03T15:00:49.965Z,1.27
2019-03-03T15:03:17.980Z,1.20
2019-03-03T15:05:46.117Z,1.30
2019-03-03T15:08:14.241Z,1.20
2019-03-03T15:10:42.251Z,1.13
2019-03-03T15:13:10.304Z,2.10
2019-03-03T15:15:38.497Z,1.60
2019-03-03T15:18:06.834Z,1.20
2019-03-03T15:20:34.949Z,1.40
2019-03-03T15:23:02.992Z,1.50
2019-03-03T15:25:31.150Z,1.30
2019-03-03T15:27:59.174Z,1.20
2019-03-03T15:30:27.256Z,1.40
2019-03-03T15:32:55.282Z,1.30
2019-03-03T15:35:24.333Z,1.00
2019-03-03T15:37:52.346Z,1.27
2019-03-03T15:40:20.462Z,1.30
2019-03-03T15:42:48.683Z,1.40
2019-03-03T15:45:18.793Z,1.10
2019-03-03T15:47:46.991Z,1.13
2019-03-03T15:50:16.343Z,1.20
2019-03-03T15:52:44.426Z,1.03
2019-03-03T15:55:13.170Z,1.00
2019-03-03T15:57:41.803Z,0.90
2019-03-03T16:00:16.520Z,0.93
2019-03-03T16:02:44.787Z,1.07
2019-03-03T16:05:12.982Z,0.87
2019-03-03T16:07:41.285Z,1.00
2019-03-03T16:10:10.447Z,1.00
2019-03-03T16:12:38.563Z,1.40
2019-03-03T16:15:08.089Z,1.07
2019-03-03T16:17:36.231Z,0.77
2019-03-03T16:20:04.948Z,16.00
2019-03-03T16:22:35.390Z,1.20
2019-03-03T16:25:03.659Z,7.10
2019-03-03T16:27:32.415Z,1.97
2019-03-03T16:30:00.803Z,1.10
2019-03-03T16:32:28.941Z,0.80
2019-03-03T16:34:57.905Z,1.47
2019-03-03T16:37:26.380Z,0.97
2019-03-03T16:39:54.522Z,0.93
2019-03-03T16:42:23.838Z,1.50
2019-03-03T16:44:52.498Z,1.57
2019-03-03T16:47:20.951Z,1.60
2019-03-03T16:49:49.046Z,1.50
2019-03-03T16:52:17.293Z,1.80
2019-03-03T16:54:45.491Z,1.30
2019-03-03T16:57:13.766Z,1.00
2019-03-03T16:59:41.818Z,1.23
2019-03-03T17:02:09.923Z,0.70
2019-03-03T17:04:38.042Z,0.90
2019-03-03T17:07:06.231Z,0.83
2019-03-03T17:09:34.434Z,0.93
2019-03-03T17:12:02.533Z,0.90
2019-03-03T17:14:30.774Z,0.80
2019-03-03T17:17:00.413Z,1.17
2019-03-03T17:19:28.563Z,2.00
2019-03-03T17:21:56.972Z,1.60
2019-03-03T17:24:26.441Z,1.27
2019-03-03T17:26:54.606Z,1.53
2019-03-03T17:29:22.853Z,1.60
2019-03-03T17:31:51.095Z,1.20
2019-03-03T17:34:20.179Z,1.63
2019-03-03T17:36:50.221Z,1.80
2019-03-03T17:39:18.337Z,1.40
2019-03-03T17:41:46.491Z,1.40
2019-03-03T17:44:14.562Z,1.10
2019-03-03T17:46:42.665Z,0.80
2019-03-03T17:49:10.746Z,1.10
2019-03-03T17:51:38.806Z,1.00
2019-03-03T17:54:06.855Z,0.70
2019-03-03T17:56:35.264Z,0.77
2019-03-03T17:59:04.790Z,0.80
2019-03-03T18:01:33.601Z,1.00
2019-03-03T18:04:01.892Z,1.03
2019-03-03T18:06:38.559Z,1.00
2019-03-03T18:09:00.612Z,1.17
2019-03-03T18:11:28.769Z,1.40
2019-03-03T18:13:58.356Z,1.20
2019-03-03T18:16:26.418Z,3.50
2019-03-03T18:18:54.547Z,1.50
2019-03-03T18:21:23.898Z,1.20
2019-03-03T18:23:52.036Z,1.40
2019-03-03T18:26:20.606Z,1.27
2019-03-03T18:28:48.811Z,1.13
2019-03-03T18:31:20.213Z,1.40
2019-03-03T18:33:49.958Z,1.17
2019-03-03T18:36:18.234Z,1.60
2019-03-03T18:38:46.306Z,2.03
2019-03-03T18:41:14.444Z,1.53
2019-03-03T18:43:42.546Z,1.50
2019-03-03T18:46:11.067Z,2.00
2019-03-03T18:48:39.243Z,2.07
2019-03-03T18:51:08.612Z,2.63
2019-03-03T18:53:39.337Z,1.90
2019-03-03T18:56:09.647Z,1.70
2019-03-03T18:58:37.771Z,1.80
2019-03-03T19:01:06.117Z,1.90
2019-03-03T19:03:34.578Z,2.40
2019-03-03T19:06:03.431Z,2.20
2019-03-03T19:08:31.529Z,1.77
2019-03-03T19:11:00.398Z,1.60
2019-03-03T19:13:28.652Z,1.87
2019-03-03T19:15:57.712Z,2.20
2019-03-03T19:18:27.059Z,1.90
2019-03-03T19:20:55.269Z,1.83
2019-03-03T19:23:23.394Z,2.20
2019-03-03T19:25:51.608Z,2.10
2019-03-03T19:28:19.781Z,1.77
2019-03-03T19:30:47.884Z,1.80
2019-03-03T19:33:25.316Z,1.60
2019-03-03T19:35:55.693Z,1.80
2019-03-03T19:38:23.813Z,2.20
2019-03-03T19:40:51.933Z,2.60
2019-03-03T19:43:21.349Z,2.40
2019-03-03T19:45:49.651Z,2.10
2019-03-03T19:48:17.833Z,1.97
2019-03-03T19:50:47.317Z,2.17
2019-03-03T19:53:15.414Z,1.60
2019-03-03T19:55:43.991Z,1.60
2019-03-03T19:58:12.172Z,1.77
2019-03-03T20:00:42.464Z,1.30
2019-03-03T20:03:10.618Z,1.57
2019-03-03T20:05:40.085Z,1.30
2019-03-03T20:08:09.449Z,1.10
2019-03-03T20:10:39.546Z,2.30
2019-03-03T20:13:07.620Z,2.10
2019-03-03T20:15:37.036Z,1.57
2019-03-03T20:18:25.719Z,2.00
2019-03-03T20:20:54.054Z,1.87
2019-03-03T20:23:22.156Z,1.97
2019-03-03T20:25:53.107Z,1.90
2019-03-03T20:28:21.786Z,2.33
2019-03-03T20:30:50.757Z,2.20
2019-03-03T20:33:19.046Z,2.30
2019-03-03T20:35:47.164Z,1.90
2019-03-03T20:38:15.279Z,1.80
2019-03-03T20:40:43.406Z,1.87
2019-03-03T20:43:11.471Z,2.20
2019-03-03T20:45:40.766Z,2.00
2019-03-03T20:48:08.820Z,2.00
2019-03-03T20:50:36.930Z,1.90
2019-03-03T20:53:05.133Z,1.90
2019-03-03T20:55:33.416Z,1.97
2019-03-03T20:58:07.962Z,1.80
2019-03-03T21:00:36.783Z,1.87
2019-03-03T21:03:04.804Z,1.90
2019-03-03T21:05:33.223Z,2.47
2019-03-03T21:08:01.265Z,2.00
2019-03-03T21:10:29.660Z,1.97
2019-03-03T21:12:58.807Z,1.90
2019-03-03T21:15:26.864Z,2.10
2019-03-03T21:17:55.304Z,1.90
2019-03-03T21:20:23.637Z,1.70
2019-03-03T21:22:51.697Z,1.70
2019-03-03T21:25:20.782Z,1.80
2019-03-03T21:27:49.112Z,2.20
2019-03-03T21:30:19.060Z,1.70
2019-03-03T21:32:47.303Z,1.90
2019-03-03T21:35:15.500Z,2.00
2019-03-03T21:37:43.469Z,2.63
2019-03-03T21:40:12.657Z,2.20
2019-03-03T21:42:40.613Z,2.40
2019-03-03T21:45:09.860Z,2.57
2019-03-03T21:47:37.972Z,2.83
2019-03-03T21:50:07.735Z,3.03
2019-03-03T21:52:35.730Z,2.93
2019-03-03T21:55:04.760Z,4.03
2019-03-03T21:57:32.729Z,3.73
2019-03-03T22:00:00.410Z,3.73
2019-03-03T22:02:28.312Z,3.17
2019-03-03T22:04:55.958Z,3.67
2019-03-03T22:07:26.075Z,4.20
2019-03-03T22:09:53.698Z,3.90
2019-03-03T22:12:21.265Z,4.13
2019-03-03T22:14:48.810Z,4.70
2019-03-03T22:17:16.279Z,5.30
2019-03-03T22:19:43.749Z,5.43
2019-03-03T22:22:11.239Z,5.33
2019-03-03T22:24:38.685Z,4.90
2019-03-03T22:27:06.143Z,4.97
2019-03-03T22:29:33.702Z,4.80
2019-03-03T22:32:01.146Z,5.13
2019-03-03T22:34:28.618Z,5.20
2019-03-03T22:36:56.149Z,4.90
2019-03-03T22:39:23.668Z,4.83
2019-03-03T22:41:51.117Z,4.30
2019-03-03T22:44:18.594Z,4.43
2019-03-03T22:46:46.024Z,3.80
2019-03-03T22:49:13.527Z,3.47
2019-03-03T22:51:41.018Z,3.93
2019-03-03T22:54:08.460Z,3.60
2019-03-03T22:56:35.960Z,3.43
2019-03-03T22:59:03.642Z,3.67
2019-03-03T23:01:37.819Z,3.50
2019-03-03T23:04:11.613Z,3.90
2019-03-03T23:06:55.900Z,3.40
2019-03-03T23:10:26.558Z,3.33
2019-03-03T23:13:31.038Z,3.40
2019-03-03T23:16:28.642Z,3.23
2019-03-03T23:19:26.446Z,3.40
2019-03-03T23:22:25.968Z,3.77
2019-03-03T23:25:05.846Z,3.70
2019-03-03T23:27:33.342Z,3.83
2019-03-03T23:30:00.817Z,4.10
2019-03-03T23:32:28.262Z,4.10
2019-03-03T23:34:55.743Z,4.37
2019-03-03T23:37:23.244Z,4.57
2019-03-03T23:39:50.756Z,4.60
2019-03-03T23:42:18.339Z,4.43
2019-03-03T23:44:45.792Z,4.17
2019-03-03T23:47:13.258Z,3.83
2019-03-03T23:49:40.742Z,3.40
2019-03-03T23:52:08.246Z,3.33
2019-03-03T23:54:35.707Z,3.40
2019-03-03T23:57:03.208Z,3.60
2019-03-03T23:59:30.858Z,3.50
